Terminal Aerodrome Forecast
Issued by NWS Central Illinois

Home | Current Version | Previous Version | Text Only | Print | Product List | Glossary On
Versions: 1 2 3 4 5 6 7 8 9 10 11 12 13 14 15 16 17 18
000
FTUS43 KILX 241100
TAFSPI
TAF
KSPI 241120Z 2412/2512 VRB03KT 1SM BR OVC002
      TEMPO 2412/2416 3SM BR SCT002 OVC008
     FM241600 22007KT P6SM BKN012
     FM242100 19005KT P6SM SCT012 BKN250
     FM250500 21008KT P6SM BKN025=

USA.gov is the U.S. government's official web portal to all federal, state and local government web resources and services.